sensor_id;sensor_type;location;lat;lon;timestamp;pressure;altitude;pressure_sealevel;temperature
71897;BMP280;59767;51.344;12.362;2023-01-23T00:02:05;159092.66;;;1.87
71897;BMP280;59767;51.344;12.362;2023-01-23T00:05:10;159081.00;;;1.82
71897;BMP280;59767;51.344;12.362;2023-01-23T00:08:14;159103.13;;;1.91
71897;BMP280;59767;51.344;12.362;2023-01-23T00:11:21;159099.22;;;1.89
71897;BMP280;59767;51.344;12.362;2023-01-23T00:14:26;159104.38;;;1.91
71897;BMP280;59767;51.344;12.362;2023-01-23T00:17:30;159081.00;;;1.82
71897;BMP280;59767;51.344;12.362;2023-01-23T00:20:38;159101.81;;;1.90
71897;BMP280;59767;51.344;12.362;2023-01-23T00:23:45;159091.34;;;1.86
71897;BMP280;59767;51.344;12.362;2023-01-23T00:26:49;159103.13;;;1.91
71897;BMP280;59767;51.344;12.362;2023-01-23T00:29:54;159084.91;;;1.84
71897;BMP280;59767;51.344;12.362;2023-01-23T00:32:58;159079.69;;;1.82
71897;BMP280;59767;51.344;12.362;2023-01-23T00:36:02;159121.34;;;1.98
71897;BMP280;59767;51.344;12.362;2023-01-23T00:39:11;159110.94;;;1.94
71897;BMP280;59767;51.344;12.362;2023-01-23T00:42:18;159097.88;;;1.89
71897;BMP280;59767;51.344;12.362;2023-01-23T00:45:22;159096.56;;;1.88
71897;BMP280;59767;51.344;12.362;2023-01-23T00:48:26;159110.94;;;1.94
71897;BMP280;59767;51.344;12.362;2023-01-23T00:51:31;159109.63;;;1.93
71897;BMP280;59767;51.344;12.362;2023-01-23T00:54:36;159120.06;;;1.97
71897;BMP280;59767;51.344;12.362;2023-01-23T00:57:40;159135.69;;;2.03
71897;BMP280;59767;51.344;12.362;2023-01-23T01:00:44;159120.06;;;1.97
71897;BMP280;59767;51.344;12.362;2023-01-23T01:03:49;159126.56;;;2.00
71897;BMP280;59767;51.344;12.362;2023-01-23T01:06:53;159120.06;;;1.97
71897;BMP280;59767;51.344;12.362;2023-01-23T01:09:57;159142.19;;;2.06
71897;BMP280;59767;51.344;12.362;2023-01-23T01:13:02;159134.38;;;2.03
71897;BMP280;59767;51.344;12.362;2023-01-23T01:16:06;159127.88;;;2.00
71897;BMP280;59767;51.344;12.362;2023-01-23T01:19:13;159146.09;;;2.07
71897;BMP280;59767;51.344;12.362;2023-01-23T01:22:17;159107.03;;;1.92
71897;BMP280;59767;51.344;12.362;2023-01-23T01:25:21;159107.03;;;1.92
71897;BMP280;59767;51.344;12.362;2023-01-23T01:28:26;159113.53;;;1.95
71897;BMP280;59767;51.344;12.362;2023-01-23T01:31:32;159117.41;;;1.96
71897;BMP280;59767;51.344;12.362;2023-01-23T01:34:36;159112.19;;;1.94
71897;BMP280;59767;51.344;12.362;2023-01-23T01:37:41;159084.91;;;1.84
71897;BMP280;59767;51.344;12.362;2023-01-23T01:40:45;159113.53;;;1.95
71897;BMP280;59767;51.344;12.362;2023-01-23T01:43:49;159103.13;;;1.91
71897;BMP280;59767;51.344;12.362;2023-01-23T01:46:54;159104.38;;;1.91
71897;BMP280;59767;51.344;12.362;2023-01-23T01:50:01;159112.19;;;1.94
71897;BMP280;59767;51.344;12.362;2023-01-23T01:53:06;159104.38;;;1.91
71897;BMP280;59767;51.344;12.362;2023-01-23T01:56:11;159113.53;;;1.95
71897;BMP280;59767;51.344;12.362;2023-01-23T01:59:19;159100.47;;;1.90
71897;BMP280;59767;51.344;12.362;2023-01-23T02:05:36;159114.84;;;1.95
71897;BMP280;59767;51.344;12.362;2023-01-23T02:08:56;159061.47;;;1.75
71897;BMP280;59767;51.344;12.362;2023-01-23T02:12:05;159104.38;;;1.91
71897;BMP280;59767;51.344;12.362;2023-01-23T02:15:09;159112.19;;;1.94
71897;BMP280;59767;51.344;12.362;2023-01-23T02:18:13;159108.28;;;1.93
71897;BMP280;59767;51.344;12.362;2023-01-23T02:21:22;159101.81;;;1.90
71897;BMP280;59767;51.344;12.362;2023-01-23T02:24:35;159109.63;;;1.93
71897;BMP280;59767;51.344;12.362;2023-01-23T02:27:40;159071.88;;;1.79
71897;BMP280;59767;51.344;12.362;2023-01-23T02:30:44;159082.31;;;1.83
71897;BMP280;59767;51.344;12.362;2023-01-23T02:33:55;159104.38;;;1.91
71897;BMP280;59767;51.344;12.362;2023-01-23T02:37:00;159095.31;;;1.88
71897;BMP280;59767;51.344;12.362;2023-01-23T02:40:05;159062.75;;;1.75
71897;BMP280;59767;51.344;12.362;2023-01-23T02:43:12;159101.81;;;1.90
71897;BMP280;59767;51.344;12.362;2023-01-23T02:46:17;159097.88;;;1.89
71897;BMP280;59767;51.344;12.362;2023-01-23T02:49:23;159084.91;;;1.84
71897;BMP280;59767;51.344;12.362;2023-01-23T02:52:27;159086.22;;;1.84
71897;BMP280;59767;51.344;12.362;2023-01-23T02:55:32;159081.00;;;1.82
71897;BMP280;59767;51.344;12.362;2023-01-23T02:58:36;159081.00;;;1.82
71897;BMP280;59767;51.344;12.362;2023-01-23T03:01:59;159088.75;;;1.85
71897;BMP280;59767;51.344;12.362;2023-01-23T03:05:04;159070.59;;;1.78
71897;BMP280;59767;51.344;12.362;2023-01-23T03:08:08;159066.66;;;1.77
71897;BMP280;59767;51.344;12.362;2023-01-23T03:11:14;159099.22;;;1.89
71897;BMP280;59767;51.344;12.362;2023-01-23T03:14:20;159065.38;;;1.76
71897;BMP280;59767;51.344;12.362;2023-01-23T03:17:25;159099.22;;;1.89
71897;BMP280;59767;51.344;12.362;2023-01-23T03:20:38;159091.34;;;1.86
71897;BMP280;59767;51.344;12.362;2023-01-23T03:23:43;159077.09;;;1.81
71897;BMP280;59767;51.344;12.362;2023-01-23T03:26:50;159091.34;;;1.86
71897;BMP280;59767;51.344;12.362;2023-01-23T03:29:54;159091.34;;;1.86
71897;BMP280;59767;51.344;12.362;2023-01-23T03:33:16;159083.59;;;1.83
71897;BMP280;59767;51.344;12.362;2023-01-23T03:36:20;159094.00;;;1.87
71897;BMP280;59767;51.344;12.362;2023-01-23T03:39:24;159062.75;;;1.75
71897;BMP280;59767;51.344;12.362;2023-01-23T03:42:47;159082.31;;;1.83
71897;BMP280;59767;51.344;12.362;2023-01-23T03:45:51;159075.78;;;1.80
71897;BMP280;59767;51.344;12.362;2023-01-23T03:48:56;159071.88;;;1.79
71897;BMP280;59767;51.344;12.362;2023-01-23T03:52:00;159071.88;;;1.79
71897;BMP280;59767;51.344;12.362;2023-01-23T03:55:04;159078.41;;;1.81
71897;BMP280;59767;51.344;12.362;2023-01-23T03:58:08;159079.69;;;1.82
71897;BMP280;59767;51.344;12.362;2023-01-23T04:01:12;159078.41;;;1.81
71897;BMP280;59767;51.344;12.362;2023-01-23T04:04:16;159104.38;;;1.91
71897;BMP280;59767;51.344;12.362;2023-01-23T04:07:21;159061.47;;;1.75
71897;BMP280;59767;51.344;12.362;2023-01-23T04:10:25;159077.09;;;1.81
71897;BMP280;59767;51.344;12.362;2023-01-23T04:13:29;159075.78;;;1.80
71897;BMP280;59767;51.344;12.362;2023-01-23T04:16:33;159077.09;;;1.81
71897;BMP280;59767;51.344;12.362;2023-01-23T04:19:37;159060.16;;;1.74
71897;BMP280;59767;51.344;12.362;2023-01-23T04:22:41;159067.97;;;1.77
71897;BMP280;59767;51.344;12.362;2023-01-23T04:25:45;159107.03;;;1.92
71897;BMP280;59767;51.344;12.362;2023-01-23T04:28:49;159099.22;;;1.89
71897;BMP280;59767;51.344;12.362;2023-01-23T04:31:53;159101.81;;;1.90
71897;BMP280;59767;51.344;12.362;2023-01-23T04:34:58;159101.81;;;1.90
71897;BMP280;59767;51.344;12.362;2023-01-23T04:38:02;159126.56;;;2.00
71897;BMP280;59767;51.344;12.362;2023-01-23T04:41:06;159123.97;;;1.99
71897;BMP280;59767;51.344;12.362;2023-01-23T04:44:10;159113.53;;;1.95
71897;BMP280;59767;51.344;12.362;2023-01-23T04:47:23;159097.88;;;1.89
71897;BMP280;59767;51.344;12.362;2023-01-23T04:50:28;159120.06;;;1.97
71897;BMP280;59767;51.344;12.362;2023-01-23T04:53:32;159095.31;;;1.88
71897;BMP280;59767;51.344;12.362;2023-01-23T04:56:36;159104.38;;;1.91
71897;BMP280;59767;51.344;12.362;2023-01-23T04:59:40;159092.66;;;1.87
71897;BMP280;59767;51.344;12.362;2023-01-23T05:02:45;159091.34;;;1.86
71897;BMP280;59767;51.344;12.362;2023-01-23T05:05:49;159088.75;;;1.85
71897;BMP280;59767;51.344;12.362;2023-01-23T05:08:53;159109.63;;;1.93
71897;BMP280;59767;51.344;12.362;2023-01-23T05:11:58;159120.06;;;1.97
71897;BMP280;59767;51.344;12.362;2023-01-23T05:15:02;159143.50;;;2.06
71897;BMP280;59767;51.344;12.362;2023-01-23T05:18:06;159121.34;;;1.98
71897;BMP280;59767;51.344;12.362;2023-01-23T05:21:10;159120.06;;;1.97
71897;BMP280;59767;51.344;12.362;2023-01-23T05:24:14;159139.59;;;2.05
71897;BMP280;59767;51.344;12.362;2023-01-23T05:27:19;159143.50;;;2.06
71897;BMP280;59767;51.344;12.362;2023-01-23T05:30:22;159156.53;;;2.11
71897;BMP280;59767;51.344;12.362;2023-01-23T05:33:27;159152.63;;;2.10
71897;BMP280;59767;51.344;12.362;2023-01-23T05:36:31;159143.50;;;2.06
71897;BMP280;59767;51.344;12.362;2023-01-23T05:39:35;159131.78;;;2.02
71897;BMP280;59767;51.344;12.362;2023-01-23T05:42:39;159138.28;;;2.04
71897;BMP280;59767;51.344;12.362;2023-01-23T05:45:44;159133.06;;;2.02
71897;BMP280;59767;51.344;12.362;2023-01-23T05:48:49;159151.31;;;2.09
71897;BMP280;59767;51.344;12.362;2023-01-23T05:51:53;159146.09;;;2.07
71897;BMP280;59767;51.344;12.362;2023-01-23T05:54:57;159125.25;;;1.99
71897;BMP280;59767;51.344;12.362;2023-01-23T05:58:02;159147.41;;;2.08
71897;BMP280;59767;51.344;12.362;2023-01-23T06:01:06;159148.72;;;2.08
71897;BMP280;59767;51.344;12.362;2023-01-23T06:04:10;159130.47;;;2.01
71897;BMP280;59767;51.344;12.362;2023-01-23T06:07:17;159114.84;;;1.95
71897;BMP280;59767;51.344;12.362;2023-01-23T06:10:22;159118.75;;;1.97
71897;BMP280;59767;51.344;12.362;2023-01-23T06:13:27;159122.66;;;1.98
71897;BMP280;59767;51.344;12.362;2023-01-23T06:16:31;159107.03;;;1.92
71897;BMP280;59767;51.344;12.362;2023-01-23T06:19:35;159114.84;;;1.95
71897;BMP280;59767;51.344;12.362;2023-01-23T06:22:39;159114.84;;;1.95
71897;BMP280;59767;51.344;12.362;2023-01-23T06:25:44;159117.41;;;1.96
71897;BMP280;59767;51.344;12.362;2023-01-23T06:28:48;159101.81;;;1.90
71897;BMP280;59767;51.344;12.362;2023-01-23T06:31:52;159107.03;;;1.92
71897;BMP280;59767;51.344;12.362;2023-01-23T06:34:56;159110.94;;;1.94
71897;BMP280;59767;51.344;12.362;2023-01-23T06:38:01;159117.41;;;1.96
71897;BMP280;59767;51.344;12.362;2023-01-23T06:41:07;159116.09;;;1.96
71897;BMP280;59767;51.344;12.362;2023-01-23T06:44:11;159108.28;;;1.93
71897;BMP280;59767;51.344;12.362;2023-01-23T06:47:15;159105.72;;;1.92
71897;BMP280;59767;51.344;12.362;2023-01-23T06:50:21;159107.03;;;1.92
71897;BMP280;59767;51.344;12.362;2023-01-23T06:53:26;159118.75;;;1.97
71897;BMP280;59767;51.344;12.362;2023-01-23T06:56:30;159134.38;;;2.03
71897;BMP280;59767;51.344;12.362;2023-01-23T06:59:34;159110.94;;;1.94
71897;BMP280;59767;51.344;12.362;2023-01-23T07:02:39;159118.75;;;1.97
71897;BMP280;59767;51.344;12.362;2023-01-23T07:05:43;159143.50;;;2.06
71897;BMP280;59767;51.344;12.362;2023-01-23T07:08:47;159122.66;;;1.98
71897;BMP280;59767;51.344;12.362;2023-01-23T07:11:53;159109.63;;;1.93
71897;BMP280;59767;51.344;12.362;2023-01-23T07:14:57;159113.53;;;1.95
71897;BMP280;59767;51.344;12.362;2023-01-23T07:18:02;159110.94;;;1.94
71897;BMP280;59767;51.344;12.362;2023-01-23T07:21:06;159096.56;;;1.88
71897;BMP280;59767;51.344;12.362;2023-01-23T07:24:10;159114.84;;;1.95
71897;BMP280;59767;51.344;12.362;2023-01-23T07:27:14;159131.78;;;2.02
71897;BMP280;59767;51.344;12.362;2023-01-23T07:30:18;159127.88;;;2.00
71897;BMP280;59767;51.344;12.362;2023-01-23T07:33:24;159114.84;;;1.95
71897;BMP280;59767;51.344;12.362;2023-01-23T07:36:28;159126.56;;;2.00
71897;BMP280;59767;51.344;12.362;2023-01-23T07:39:33;159150.00;;;2.09
71897;BMP280;59767;51.344;12.362;2023-01-23T07:42:37;159117.41;;;1.96
71897;BMP280;59767;51.344;12.362;2023-01-23T07:45:42;159155.22;;;2.11
71897;BMP280;59767;51.344;12.362;2023-01-23T07:48:47;159146.09;;;2.07
71897;BMP280;59767;51.344;12.362;2023-01-23T07:51:51;159157.81;;;2.12
71897;BMP280;59767;51.344;12.362;2023-01-23T07:54:55;159160.44;;;2.13
71897;BMP280;59767;51.344;12.362;2023-01-23T07:57:59;159150.00;;;2.09
71897;BMP280;59767;51.344;12.362;2023-01-23T08:01:08;159170.84;;;2.17
71897;BMP280;59767;51.344;12.362;2023-01-23T08:04:13;159194.34;;;2.26
71897;BMP280;59767;51.344;12.362;2023-01-23T08:07:17;159176.06;;;2.19
71897;BMP280;59767;51.344;12.362;2023-01-23T08:10:21;159187.78;;;2.23
71897;BMP280;59767;51.344;12.362;2023-01-23T08:13:25;159183.88;;;2.22
71897;BMP280;59767;51.344;12.362;2023-01-23T08:16:30;159196.94;;;2.27
71897;BMP280;59767;51.344;12.362;2023-01-23T08:19:34;159228.13;;;2.39
71897;BMP280;59767;51.344;12.362;2023-01-23T08:22:39;159190.44;;;2.24
71897;BMP280;59767;51.344;12.362;2023-01-23T08:25:43;159213.81;;;2.33
71897;BMP280;59767;51.344;12.362;2023-01-23T08:28:47;159234.69;;;2.41
71897;BMP280;59767;51.344;12.362;2023-01-23T08:31:51;159267.28;;;2.54
71897;BMP280;59767;51.344;12.362;2023-01-23T08:34:58;159225.56;;;2.38
71897;BMP280;59767;51.344;12.362;2023-01-23T08:38:03;159215.16;;;2.34
71897;BMP280;59767;51.344;12.362;2023-01-23T08:41:09;159179.97;;;2.20
71897;BMP280;59767;51.344;12.362;2023-01-23T08:44:15;159153.91;;;2.10
71897;BMP280;59767;51.344;12.362;2023-01-23T08:47:19;159165.63;;;2.15
71897;BMP280;59767;51.344;12.362;2023-01-23T08:50:23;159173.50;;;2.18
71897;BMP280;59767;51.344;12.362;2023-01-23T08:53:28;159164.34;;;2.14
71897;BMP280;59767;51.344;12.362;2023-01-23T08:56:32;159151.31;;;2.09
71897;BMP280;59767;51.344;12.362;2023-01-23T08:59:36;159164.34;;;2.14
71897;BMP280;59767;51.344;12.362;2023-01-23T09:02:40;159160.44;;;2.13
71897;BMP280;59767;51.344;12.362;2023-01-23T09:05:44;159183.88;;;2.22
71897;BMP280;59767;51.344;12.362;2023-01-23T09:08:49;159157.81;;;2.12
71897;BMP280;59767;51.344;12.362;2023-01-23T09:11:54;159179.97;;;2.20
71897;BMP280;59767;51.344;12.362;2023-01-23T09:14:58;159160.44;;;2.13
71897;BMP280;59767;51.344;12.362;2023-01-23T09:18:02;159174.75;;;2.18
71897;BMP280;59767;51.344;12.362;2023-01-23T09:21:08;159182.56;;;2.21
71897;BMP280;59767;51.344;12.362;2023-01-23T09:24:12;159198.19;;;2.27
71897;BMP280;59767;51.344;12.362;2023-01-23T09:27:17;159211.19;;;2.32
71897;BMP280;59767;51.344;12.362;2023-01-23T09:30:21;159217.72;;;2.35
71897;BMP280;59767;51.344;12.362;2023-01-23T09:33:26;159186.47;;;2.23
71897;BMP280;59767;51.344;12.362;2023-01-23T09:36:30;159203.38;;;2.29
71897;BMP280;59767;51.344;12.362;2023-01-23T09:39:45;159221.66;;;2.36
71897;BMP280;59767;51.344;12.362;2023-01-23T09:42:50;159202.09;;;2.29
71897;BMP280;59767;51.344;12.362;2023-01-23T09:46:04;159196.94;;;2.27
71897;BMP280;59767;51.344;12.362;2023-01-23T09:49:23;159232.06;;;2.40
71897;BMP280;59767;51.344;12.362;2023-01-23T09:52:33;159242.50;;;2.44
71897;BMP280;59767;51.344;12.362;2023-01-23T09:55:42;159262.03;;;2.52
71897;BMP280;59767;51.344;12.362;2023-01-23T09:59:01;159284.22;;;2.60
71897;BMP280;59767;51.344;12.362;2023-01-23T10:02:16;159273.78;;;2.56
71897;BMP280;59767;51.344;12.362;2023-01-23T10:05:35;159292.00;;;2.63
71897;BMP280;59767;51.344;12.362;2023-01-23T10:15:48;159331.06;;;2.78
71897;BMP280;59767;51.344;12.362;2023-01-23T10:19:40;159368.84;;;2.93
71897;BMP280;59767;51.344;12.362;2023-01-23T10:22:54;159381.91;;;2.98
71897;BMP280;59767;51.344;12.362;2023-01-23T10:26:01;159396.25;;;3.03
71897;BMP280;59767;51.344;12.362;2023-01-23T10:29:37;159409.31;;;3.08
71897;BMP280;59767;51.344;12.362;2023-01-23T10:32:50;159398.84;;;3.04
71897;BMP280;59767;51.344;12.362;2023-01-23T10:36:00;159424.94;;;3.14
71897;BMP280;59767;51.344;12.362;2023-01-23T10:39:12;159427.53;;;3.15
71897;BMP280;59767;51.344;12.362;2023-01-23T10:42:20;159424.94;;;3.14
71897;BMP280;59767;51.344;12.362;2023-01-23T10:45:25;159402.75;;;3.06
71897;BMP280;59767;51.344;12.362;2023-01-23T10:48:40;159414.50;;;3.10
71897;BMP280;59767;51.344;12.362;2023-01-23T10:51:47;159411.91;;;3.09
71897;BMP280;59767;51.344;12.362;2023-01-23T10:54:53;159389.72;;;3.01
71897;BMP280;59767;51.344;12.362;2023-01-23T10:57:59;159398.84;;;3.04
71897;BMP280;59767;51.344;12.362;2023-01-23T11:01:24;159426.22;;;3.15
71897;BMP280;59767;51.344;12.362;2023-01-23T11:04:34;159432.78;;;3.17
71897;BMP280;59767;51.344;12.362;2023-01-23T11:07:39;159417.13;;;3.11
71897;BMP280;59767;51.344;12.362;2023-01-23T11:10:43;159419.72;;;3.12
71897;BMP280;59767;51.344;12.362;2023-01-23T11:13:50;159440.53;;;3.20
71897;BMP280;59767;51.344;12.362;2023-01-23T11:17:00;159434.09;;;3.18
71897;BMP280;59767;51.344;12.362;2023-01-23T11:23:28;159447.03;;;3.23
71897;BMP280;59767;51.344;12.362;2023-01-23T11:26:35;159437.94;;;3.19
71897;BMP280;59767;51.344;12.362;2023-01-23T11:29:58;159450.94;;;3.24
71897;BMP280;59767;51.344;12.362;2023-01-23T11:39:39;159461.41;;;3.28
71897;BMP280;59767;51.344;12.362;2023-01-23T11:42:46;159461.41;;;3.28
71897;BMP280;59767;51.344;12.362;2023-01-23T11:46:04;159435.38;;;3.18
71897;BMP280;59767;51.344;12.362;2023-01-23T11:56:01;159434.09;;;3.18
71897;BMP280;59767;51.344;12.362;2023-01-23T11:59:19;159445.78;;;3.22
71897;BMP280;59767;51.344;12.362;2023-01-23T12:09:46;159427.53;;;3.15
71897;BMP280;59767;51.344;12.362;2023-01-23T12:13:31;159398.84;;;3.04
71897;BMP280;59767;51.344;12.362;2023-01-23T12:30:48;159384.53;;;2.99
71897;BMP280;59767;51.344;12.362;2023-01-23T12:38:00;159414.50;;;3.10
71897;BMP280;59767;51.344;12.362;2023-01-23T12:42:31;159405.34;;;3.07
71897;BMP280;59767;51.344;12.362;2023-01-23T12:48:28;159431.44;;;3.17
71897;BMP280;59767;51.344;12.362;2023-01-23T12:51:38;159426.22;;;3.15
71897;BMP280;59767;51.344;12.362;2023-01-23T12:54:52;159443.13;;;3.21
71897;BMP280;59767;51.344;12.362;2023-01-23T12:57:59;159440.53;;;3.20
71897;BMP280;59767;51.344;12.362;2023-01-23T13:01:27;159431.44;;;3.17
71897;BMP280;59767;51.344;12.362;2023-01-23T13:15:33;159427.53;;;3.15
71897;BMP280;59767;51.344;12.362;2023-01-23T13:18:56;159428.84;;;3.16
71897;BMP280;59767;51.344;12.362;2023-01-23T13:22:31;159411.91;;;3.09
71897;BMP280;59767;51.344;12.362;2023-01-23T13:25:41;159411.91;;;3.09
71897;BMP280;59767;51.344;12.362;2023-01-23T13:28:47;159405.34;;;3.07
71897;BMP280;59767;51.344;12.362;2023-01-23T13:32:20;159410.59;;;3.09
71897;BMP280;59767;51.344;12.362;2023-01-23T13:38:42;159405.34;;;3.07
71897;BMP280;59767;51.344;12.362;2023-01-23T13:41:51;159409.31;;;3.08
71897;BMP280;59767;51.344;12.362;2023-01-23T13:48:40;159381.91;;;2.98
71897;BMP280;59767;51.344;12.362;2023-01-23T13:52:49;159411.91;;;3.09
71897;BMP280;59767;51.344;12.362;2023-01-23T13:56:26;159396.25;;;3.03
71897;BMP280;59767;51.344;12.362;2023-01-23T13:59:56;159377.97;;;2.96
71897;BMP280;59767;51.344;12.362;2023-01-23T14:03:27;159405.34;;;3.07
71897;BMP280;59767;51.344;12.362;2023-01-23T14:07:32;159355.84;;;2.88
71897;BMP280;59767;51.344;12.362;2023-01-23T14:11:12;159388.44;;;3.00
71897;BMP280;59767;51.344;12.362;2023-01-23T14:14:35;159379.31;;;2.97
71897;BMP280;59767;51.344;12.362;2023-01-23T14:18:17;159397.53;;;3.04
71897;BMP280;59767;51.344;12.362;2023-01-23T14:21:37;159397.53;;;3.04
71897;BMP280;59767;51.344;12.362;2023-01-23T14:24:47;159389.72;;;3.01
71897;BMP280;59767;51.344;12.362;2023-01-23T14:28:04;159414.50;;;3.10
71897;BMP280;59767;51.344;12.362;2023-01-23T14:31:20;159417.13;;;3.11
71897;BMP280;59767;51.344;12.362;2023-01-23T14:34:25;159413.22;;;3.10
71897;BMP280;59767;51.344;12.362;2023-01-23T14:37:32;159384.53;;;2.99
71897;BMP280;59767;51.344;12.362;2023-01-23T14:40:40;159379.31;;;2.97
71897;BMP280;59767;51.344;12.362;2023-01-23T14:43:55;159384.53;;;2.99
71897;BMP280;59767;51.344;12.362;2023-01-23T14:47:00;159368.84;;;2.93
71897;BMP280;59767;51.344;12.362;2023-01-23T14:50:15;159372.75;;;2.94
71897;BMP280;59767;51.344;12.362;2023-01-23T14:53:20;159363.66;;;2.91
71897;BMP280;59767;51.344;12.362;2023-01-23T14:56:27;159354.59;;;2.87
71897;BMP280;59767;51.344;12.362;2023-01-23T14:59:35;159357.16;;;2.88
71897;BMP280;59767;51.344;12.362;2023-01-23T15:02:40;159350.69;;;2.86
71897;BMP280;59767;51.344;12.362;2023-01-23T15:05:56;159346.75;;;2.84
71897;BMP280;59767;51.344;12.362;2023-01-23T15:09:11;159344.13;;;2.83
71897;BMP280;59767;51.344;12.362;2023-01-23T15:12:17;159324.56;;;2.76
71897;BMP280;59767;51.344;12.362;2023-01-23T15:15:23;159324.56;;;2.76
71897;BMP280;59767;51.344;12.362;2023-01-23T15:18:31;159377.97;;;2.96
71897;BMP280;59767;51.344;12.362;2023-01-23T15:21:40;159362.41;;;2.90
71897;BMP280;59767;51.344;12.362;2023-01-23T15:24:44;159354.59;;;2.87
71897;BMP280;59767;51.344;12.362;2023-01-23T15:27:48;159349.34;;;2.85
71897;BMP280;59767;51.344;12.362;2023-01-23T15:30:52;159341.53;;;2.82
71897;BMP280;59767;51.344;12.362;2023-01-23T15:37:24;159342.84;;;2.83
71897;BMP280;59767;51.344;12.362;2023-01-23T15:40:31;159310.22;;;2.70
71897;BMP280;59767;51.344;12.362;2023-01-23T15:43:36;159307.63;;;2.69
71897;BMP280;59767;51.344;12.362;2023-01-23T15:46:40;159312.84;;;2.71
71897;BMP280;59767;51.344;12.362;2023-01-23T15:49:45;159315.44;;;2.72
71897;BMP280;59767;51.344;12.362;2023-01-23T15:52:51;159288.06;;;2.62
71897;BMP280;59767;51.344;12.362;2023-01-23T15:55:56;159284.22;;;2.60
71897;BMP280;59767;51.344;12.362;2023-01-23T15:59:00;159299.81;;;2.66
71897;BMP280;59767;51.344;12.362;2023-01-23T16:02:06;159324.56;;;2.76
71897;BMP280;59767;51.344;12.362;2023-01-23T16:05:34;159320.66;;;2.74
71897;BMP280;59767;51.344;12.362;2023-01-23T16:08:39;159318.09;;;2.73
71897;BMP280;59767;51.344;12.362;2023-01-23T16:11:43;159314.16;;;2.72
71897;BMP280;59767;51.344;12.362;2023-01-23T16:14:48;159318.09;;;2.73
71897;BMP280;59767;51.344;12.362;2023-01-23T16:17:52;159307.63;;;2.69
71897;BMP280;59767;51.344;12.362;2023-01-23T16:20:57;159315.44;;;2.72
71897;BMP280;59767;51.344;12.362;2023-01-23T16:24:01;159319.34;;;2.74
71897;BMP280;59767;51.344;12.362;2023-01-23T16:27:14;159301.13;;;2.67
71897;BMP280;59767;51.344;12.362;2023-01-23T16:30:21;159279.00;;;2.58
71897;BMP280;59767;51.344;12.362;2023-01-23T16:33:26;159284.22;;;2.60
71897;BMP280;59767;51.344;12.362;2023-01-23T16:36:30;159293.31;;;2.64
71897;BMP280;59767;51.344;12.362;2023-01-23T16:39:34;159284.22;;;2.60
71897;BMP280;59767;51.344;12.362;2023-01-23T16:42:38;159289.41;;;2.62
71897;BMP280;59767;51.344;12.362;2023-01-23T16:45:43;159284.22;;;2.60
71897;BMP280;59767;51.344;12.362;2023-01-23T16:48:47;159280.31;;;2.59
71897;BMP280;59767;51.344;12.362;2023-01-23T16:51:58;159263.38;;;2.52
71897;BMP280;59767;51.344;12.362;2023-01-23T16:55:15;159255.53;;;2.49
71897;BMP280;59767;51.344;12.362;2023-01-23T16:58:27;159259.44;;;2.51
71897;BMP280;59767;51.344;12.362;2023-01-23T17:01:35;159255.53;;;2.49
71897;BMP280;59767;51.344;12.362;2023-01-23T17:04:40;159262.03;;;2.52
71897;BMP280;59767;51.344;12.362;2023-01-23T17:07:45;159254.22;;;2.49
71897;BMP280;59767;51.344;12.362;2023-01-23T17:10:58;159262.03;;;2.52
71897;BMP280;59767;51.344;12.362;2023-01-23T17:14:10;159277.69;;;2.58
71897;BMP280;59767;51.344;12.362;2023-01-23T17:17:19;159271.19;;;2.55
71897;BMP280;59767;51.344;12.362;2023-01-23T17:20:26;159279.00;;;2.58
71897;BMP280;59767;51.344;12.362;2023-01-23T17:23:31;159269.84;;;2.55
71897;BMP280;59767;51.344;12.362;2023-01-23T17:26:35;159254.22;;;2.49
71897;BMP280;59767;51.344;12.362;2023-01-23T17:29:40;159249.00;;;2.47
71897;BMP280;59767;51.344;12.362;2023-01-23T17:32:46;159271.19;;;2.55
71897;BMP280;59767;51.344;12.362;2023-01-23T17:35:51;159254.22;;;2.49
71897;BMP280;59767;51.344;12.362;2023-01-23T17:38:58;159286.75;;;2.61
71897;BMP280;59767;51.344;12.362;2023-01-23T17:42:02;159260.72;;;2.51
71897;BMP280;59767;51.344;12.362;2023-01-23T17:45:15;159254.22;;;2.49
71897;BMP280;59767;51.344;12.362;2023-01-23T17:48:29;159260.72;;;2.51
71897;BMP280;59767;51.344;12.362;2023-01-23T17:51:34;159260.72;;;2.51
71897;BMP280;59767;51.344;12.362;2023-01-23T17:54:38;159258.13;;;2.50
71897;BMP280;59767;51.344;12.362;2023-01-23T17:57:43;159268.59;;;2.54
71897;BMP280;59767;51.344;12.362;2023-01-23T18:00:49;159263.38;;;2.52
71897;BMP280;59767;51.344;12.362;2023-01-23T18:03:54;159249.00;;;2.47
71897;BMP280;59767;51.344;12.362;2023-01-23T18:06:58;159258.13;;;2.50
71897;BMP280;59767;51.344;12.362;2023-01-23T18:10:03;159263.38;;;2.52
71897;BMP280;59767;51.344;12.362;2023-01-23T18:16:35;159275.09;;;2.57
71897;BMP280;59767;51.344;12.362;2023-01-23T18:19:43;159260.72;;;2.51
71897;BMP280;59767;51.344;12.362;2023-01-23T18:22:47;159276.41;;;2.57
71897;BMP280;59767;51.344;12.362;2023-01-23T18:29:40;159269.84;;;2.55
71897;BMP280;59767;51.344;12.362;2023-01-23T18:33:14;159276.41;;;2.57
71897;BMP280;59767;51.344;12.362;2023-01-23T18:36:29;159275.09;;;2.57
71897;BMP280;59767;51.344;12.362;2023-01-23T18:39:53;159307.63;;;2.69
71897;BMP280;59767;51.344;12.362;2023-01-23T18:43:30;159273.78;;;2.56
71897;BMP280;59767;51.344;12.362;2023-01-23T18:46:36;159281.59;;;2.59
71897;BMP280;59767;51.344;12.362;2023-01-23T18:49:41;159288.06;;;2.62
71897;BMP280;59767;51.344;12.362;2023-01-23T18:52:56;159292.00;;;2.63
71897;BMP280;59767;51.344;12.362;2023-01-23T19:02:40;159284.22;;;2.60
71897;BMP280;59767;51.344;12.362;2023-01-23T19:05:46;159258.13;;;2.50
71897;BMP280;59767;51.344;12.362;2023-01-23T19:08:51;159290.66;;;2.63
71897;BMP280;59767;51.344;12.362;2023-01-23T19:18:46;159280.31;;;2.59
71897;BMP280;59767;51.344;12.362;2023-01-23T19:21:50;159286.75;;;2.61
71897;BMP280;59767;51.344;12.362;2023-01-23T19:24:55;159289.41;;;2.62
71897;BMP280;59767;51.344;12.362;2023-01-23T19:27:59;159271.19;;;2.55